Time;durP1;ratioP1;P1;durP2;ratioP2;P2;SDS_P1;SDS_P2;PMS_P1;PMS_P2;Temp;Humidity;BMP_temperature;BMP_pressure;BME280_temperature;BME280_humidity;BME280_pressure;Samples;Min_cycle;Max_cycle;Signal;HPM_P1;HPM_P2
2022/10/11 00:00:52;;;;;;;7.93;4.45;;;17.90;64.10;;;;;;5076021;28;20051;-74
2022/10/11 00:03:19;;;;;;;11.38;3.55;;;17.90;64.20;;;;;;5075907;28;20477;-73
2022/10/11 00:05:45;;;;;;;8.32;5.38;;;17.90;64.30;;;;;;5075890;28;20534;-77
2022/10/11 00:08:12;;;;;;;9.75;5.75;;;17.90;64.20;;;;;;5075951;28;20091;-72
2022/10/11 00:10:39;;;;;;;24.15;13.13;;;17.90;64.20;;;;;;5075805;28;20020;-72
2022/10/11 00:13:05;;;;;;;22.52;13.68;;;17.90;64.20;;;;;;5075835;28;20055;-78
2022/10/11 00:15:31;;;;;;;38.35;15.27;;;17.90;64.30;;;;;;5075715;28;20033;-72
2022/10/11 00:17:57;;;;;;;21.48;9.63;;;17.90;64.30;;;;;;5075784;28;20024;-75
2022/10/11 00:20:23;;;;;;;18.42;8.85;;;17.90;64.30;;;;;;5075492;28;20036;-73
2022/10/11 00:22:49;;;;;;;12.40;6.03;;;17.90;64.40;;;;;;5075609;28;20493;-76
2022/10/11 00:25:16;;;;;;;24.45;7.07;;;17.90;64.50;;;;;;5075564;28;20024;-75
2022/10/11 00:27:41;;;;;;;12.23;6.07;;;17.80;64.40;;;;;;5074009;28;20103;-77
2022/10/11 00:30:08;;;;;;;11.40;5.78;;;17.80;64.40;;;;;;5075463;28;20108;-74
2022/10/11 00:32:35;;;;;;;11.68;6.03;;;17.80;64.40;;;;;;5063848;28;20028;-77
2022/10/11 00:35:05;;;;;;;11.27;5.45;;;17.70;64.50;;;;;;5075114;28;20029;-76
2022/10/11 00:37:35;;;;;;;10.27;4.30;;;17.70;64.60;;;;;;5075329;28;20035;-76
2022/10/11 00:40:02;;;;;;;7.28;4.20;;;17.60;64.60;;;;;;5075152;28;20470;-74
2022/10/11 00:42:28;;;;;;;10.82;5.50;;;17.70;65.00;;;;;;5075113;28;20091;-77
2022/10/11 00:45:25;;;;;;;13.80;6.53;;;17.60;65.40;;;;;;5075271;28;20060;-74
2022/10/11 00:47:58;;;;;;;12.07;7.47;;;17.60;65.40;;;;;;5074963;28;20055;-75
2022/10/11 00:50:26;;;;;;;9.63;5.82;;;17.60;65.40;;;;;;5088430;28;20021;-77
2022/10/11 00:52:57;;;;;;;10.40;4.90;;;17.60;65.20;;;;;;5058013;28;20059;-75
2022/10/11 00:55:27;;;;;;;8.95;5.00;;;17.60;65.20;;;;;;5054955;28;20025;-74
2022/10/11 00:57:55;;;;;;;11.65;5.38;;;17.60;65.20;;;;;;5060376;28;20032;-75
2022/10/11 01:00:21;;;;;;;10.93;4.38;;;17.50;65.40;;;;;;5073164;28;20024;-72
2022/10/11 01:02:47;;;;;;;6.97;4.40;;;17.50;66.00;;;;;;5090438;28;20070;-77
2022/10/11 01:05:16;;;;;;;13.23;6.05;;;17.50;66.60;;;;;;5077696;28;20028;-72
2022/10/11 01:07:43;;;;;;;9.43;4.78;;;17.50;66.80;;;;;;5087800;28;20406;-74
2022/10/11 01:10:09;;;;;;;9.57;5.13;;;17.40;66.40;;;;;;5084977;28;20059;-76
2022/10/11 01:12:37;;;;;;;12.27;4.53;;;17.50;66.10;;;;;;5080265;28;20025;-75
2022/10/11 01:15:29;;;;;;;8.07;4.22;;;17.40;66.00;;;;;;5091079;28;20078;-74
2022/10/11 01:18:13;;;;;;;12.02;5.95;;;17.40;65.90;;;;;;5066648;28;20032;-74
2022/10/11 01:21:04;;;;;;;11.73;5.50;;;17.40;65.80;;;;;;5079491;28;20056;-74
2022/10/11 01:23:59;;;;;;;9.73;5.30;;;17.40;65.90;;;;;;5064185;28;20107;-76
2022/10/11 01:26:40;;;;;;;8.48;4.32;;;17.30;65.70;;;;;;5064463;28;20037;-72
2022/10/11 01:29:28;;;;;;;9.15;4.88;;;17.20;65.60;;;;;;5091184;28;20024;-75
2022/10/11 01:32:03;;;;;;;12.30;4.57;;;17.20;65.50;;;;;;5082889;28;20051;-74
2022/10/11 01:34:52;;;;;;;10.10;4.65;;;17.10;65.20;;;;;;5081184;28;20032;-75
2022/10/11 01:37:26;;;;;;;20.63;7.63;;;17.00;65.20;;;;;;5090854;28;20016;-76
2022/10/11 01:40:01;;;;;;;9.98;5.78;;;17.00;65.50;;;;;;5082321;28;20024;-74
2022/10/11 01:42:28;;;;;;;11.13;5.00;;;16.90;65.90;;;;;;5081209;28;20021;-73
2022/10/11 01:44:55;;;;;;;16.67;4.68;;;16.90;66.00;;;;;;5090325;28;20059;-76
2022/10/11 01:47:23;;;;;;;11.27;5.07;;;16.80;66.70;;;;;;5077799;28;20489;-72
2022/10/11 01:49:53;;;;;;;10.48;4.63;;;16.70;67.00;;;;;;5086237;28;20024;-73
2022/10/11 01:52:20;;;;;;;14.05;5.00;;;16.70;67.50;;;;;;5074786;28;20052;-75
2022/10/11 01:54:48;;;;;;;13.27;5.40;;;16.60;67.50;;;;;;5084529;28;20024;-74
2022/10/11 01:57:26;;;;;;;6.80;4.32;;;16.60;68.00;;;;;;5076906;28;20097;-73
2022/10/11 01:59:55;;;;;;;9.13;4.70;;;16.50;68.60;;;;;;5094133;28;20038;-74
2022/10/11 02:02:54;;;;;;;11.40;4.90;;;16.50;69.00;;;;;;5094430;28;20099;-70
2022/10/11 02:05:37;;;;;;;11.48;5.60;;;16.40;69.30;;;;;;5094316;28;20019;-73
2022/10/11 02:08:37;;;;;;;17.47;6.43;;;16.40;69.30;;;;;;5094415;28;20097;-75
2022/10/11 02:11:25;;;;;;;13.25;5.75;;;16.30;69.30;;;;;;5094119;28;20343;-72
2022/10/11 02:14:03;;;;;;;16.05;6.50;;;16.30;69.40;;;;;;5094145;28;20029;-74
2022/10/11 02:16:51;;;;;;;15.35;7.07;;;16.30;69.40;;;;;;5094039;28;20047;-74
2022/10/11 02:19:20;;;;;;;18.00;7.72;;;16.20;69.20;;;;;;5093875;28;20016;-74
2022/10/11 02:21:53;;;;;;;12.45;6.40;;;16.20;68.90;;;;;;5093924;28;20012;-73
2022/10/11 02:24:26;;;;;;;9.85;4.93;;;16.10;68.70;;;;;;5093800;28;20020;-77
2022/10/11 02:26:55;;;;;;;9.80;4.38;;;16.10;68.40;;;;;;5092354;28;20016;-76
2022/10/11 02:29:25;;;;;;;8.57;4.47;;;16.00;68.20;;;;;;5073270;28;20485;-71
2022/10/11 02:31:51;;;;;;;22.77;10.15;;;16.00;68.20;;;;;;5073313;28;20474;-74
2022/10/11 02:34:36;;;;;;;17.63;7.55;;;16.00;68.70;;;;;;5073357;28;20025;-73
2022/10/11 02:37:14;;;;;;;19.90;6.68;;;15.90;69.30;;;;;;5073270;28;20028;-73
2022/10/11 02:40:10;;;;;;;13.88;5.63;;;16.00;69.60;;;;;;5073215;28;20491;-73
2022/10/11 02:42:43;;;;;;;26.98;5.38;;;15.90;69.30;;;;;;5051713;28;20116;-73
2022/10/11 02:45:15;;;;;;;10.77;5.18;;;15.90;69.00;;;;;;5073083;28;20486;-74
2022/10/11 02:47:41;;;;;;;10.90;4.82;;;16.00;69.00;;;;;;5073200;28;20411;-76
2022/10/11 02:50:09;;;;;;;7.72;5.15;;;15.90;69.00;;;;;;5088727;28;20028;-77
2022/10/11 02:52:35;;;;;;;8.50;4.57;;;15.90;69.30;;;;;;5072918;28;20024;-74
2022/10/11 02:55:01;;;;;;;7.38;4.05;;;15.90;69.50;;;;;;5073047;28;20025;-72
2022/10/11 02:57:27;;;;;;;6.20;4.18;;;15.90;69.60;;;;;;5072929;28;20017;-72
2022/10/11 02:59:52;;;;;;;11.13;4.97;;;15.90;69.70;;;;;;5072900;28;20047;-75
2022/10/11 03:02:18;;;;;;;18.35;4.28;;;15.90;69.60;;;;;;5072972;28;20429;-75
2022/10/11 03:04:44;;;;;;;6.10;3.97;;;15.90;69.40;;;;;;5072815;28;20095;-74
2022/10/11 03:07:10;;;;;;;7.90;4.60;;;16.00;69.40;;;;;;5072209;28;20020;-74
2022/10/11 03:09:36;;;;;;;8.07;4.15;;;16.00;69.30;;;;;;5088323;28;20050;-70
2022/10/11 03:12:02;;;;;;;14.65;4.93;;;16.00;69.20;;;;;;5072768;28;20078;-74
2022/10/11 03:14:28;;;;;;;9.57;5.50;;;16.00;69.00;;;;;;5072761;28;20100;-72
2022/10/11 03:16:53;;;;;;;22.10;14.63;;;16.00;69.00;;;;;;5072740;28;20112;-76
2022/10/11 03:19:19;;;;;;;16.95;10.57;;;16.00;68.80;;;;;;5071292;28;20033;-74
2022/10/11 03:21:45;;;;;;;13.15;7.85;;;16.00;68.80;;;;;;5072656;28;20099;-76
2022/10/11 03:24:11;;;;;;;13.25;7.07;;;15.90;68.70;;;;;;5072450;28;20013;-73
2022/10/11 03:26:37;;;;;;;17.83;6.45;;;15.90;68.90;;;;;;5072507;28;20045;-72
2022/10/11 03:29:03;;;;;;;9.80;6.10;;;15.90;69.10;;;;;;5072318;28;20059;-75
2022/10/11 03:31:28;;;;;;;9.88;5.90;;;15.90;69.20;;;;;;5072472;28;20044;-76
2022/10/11 03:33:54;;;;;;;8.73;5.63;;;15.90;69.30;;;;;;5072361;28;20498;-73
2022/10/11 03:36:20;;;;;;;11.23;6.47;;;15.90;69.50;;;;;;5072323;28;20047;-76
2022/10/11 03:38:46;;;;;;;15.10;6.90;;;15.90;69.80;;;;;;5072217;28;20052;-74
2022/10/11 03:41:12;;;;;;;12.48;6.00;;;15.90;69.80;;;;;;5072218;28;20074;-76
2022/10/11 03:43:38;;;;;;;15.25;6.53;;;16.00;70.00;;;;;;5072376;28;20093;-77
2022/10/11 03:46:03;;;;;;;13.18;5.30;;;16.10;70.10;;;;;;5072241;28;20055;-73
2022/10/11 03:48:29;;;;;;;7.63;5.18;;;16.10;70.10;;;;;;5072352;28;20031;-74
2022/10/11 03:50:55;;;;;;;10.85;5.57;;;16.10;70.00;;;;;;5072280;28;20028;-75
2022/10/11 03:53:20;;;;;;;8.90;4.93;;;16.20;70.00;;;;;;5070890;28;20481;-72
2022/10/11 03:55:52;;;;;;;8.50;5.18;;;16.20;69.80;;;;;;5070900;28;20032;-78
2022/10/11 03:58:17;;;;;;;8.90;4.97;;;16.20;69.70;;;;;;5067100;28;20021;-75
2022/10/11 04:00:43;;;;;;;11.80;4.90;;;16.30;69.80;;;;;;5072182;28;20428;-75
2022/10/11 04:03:09;;;;;;;10.27;5.45;;;16.30;69.80;;;;;;5072128;28;20024;-75
2022/10/11 04:05:35;;;;;;;12.07;5.07;;;16.30;69.70;;;;;;5072089;28;20382;-72
2022/10/11 04:08:01;;;;;;;11.35;5.68;;;16.40;69.70;;;;;;5072199;28;20078;-73
2022/10/11 04:10:27;;;;;;;10.00;5.10;;;16.40;69.70;;;;;;5072185;28;20072;-75
2022/10/11 04:12:53;;;;;;;14.35;8.27;;;16.50;69.70;;;;;;5072111;28;20020;-75
2022/10/11 04:15:19;;;;;;;16.15;8.38;;;16.50;69.60;;;;;;5072004;28;20466;-75
2022/10/11 04:17:45;;;;;;;14.27;8.68;;;16.50;69.40;;;;;;5072781;28;20043;-76
2022/10/11 04:20:13;;;;;;;16.52;7.72;;;16.50;69.10;;;;;;5075621;28;20056;-73
2022/10/11 04:22:39;;;;;;;20.27;9.13;;;16.50;69.10;;;;;;5075667;28;20020;-72
2022/10/11 04:25:06;;;;;;;17.90;8.05;;;16.60;69.20;;;;;;5075614;28;20523;-73
2022/10/11 04:27:33;;;;;;;13.18;6.20;;;16.60;69.20;;;;;;5075377;28;20048;-71
2022/10/11 04:29:59;;;;;;;12.63;6.18;;;16.60;69.20;;;;;;5075528;28;20023;-75
2022/10/11 04:32:25;;;;;;;18.17;7.57;;;16.60;69.00;;;;;;5075321;28;20103;-76
2022/10/11 04:34:50;;;;;;;17.20;8.35;;;16.60;68.90;;;;;;5074222;28;20078;-73
2022/10/11 04:37:17;;;;;;;12.48;5.80;;;16.60;68.80;;;;;;5075387;28;20024;-73
2022/10/11 04:39:43;;;;;;;19.88;6.20;;;16.70;68.70;;;;;;5075347;28;20033;-75
2022/10/11 04:42:09;;;;;;;9.18;4.63;;;16.60;68.60;;;;;;5075515;28;20027;-74
2022/10/11 04:44:35;;;;;;;9.40;4.63;;;16.60;68.20;;;;;;5075105;28;20021;-73
2022/10/11 04:47:00;;;;;;;10.30;5.25;;;16.50;68.10;;;;;;5075354;28;20382;-74
2022/10/11 04:49:26;;;;;;;9.23;4.15;;;16.50;68.00;;;;;;5075210;28;20031;-77
2022/10/11 04:51:52;;;;;;;10.93;4.50;;;16.40;68.00;;;;;;5075218;28;20090;-74
2022/10/11 04:54:18;;;;;;;9.38;4.68;;;16.40;68.10;;;;;;5075166;28;20016;-76
2022/10/11 04:56:44;;;;;;;8.68;4.63;;;16.30;68.20;;;;;;5075184;28;20385;-76
2022/10/11 04:59:09;;;;;;;7.85;4.78;;;16.20;68.20;;;;;;5074697;28;20082;-76
2022/10/11 05:01:47;;;;;;;38.78;21.00;;;16.20;68.40;;;;;;5074787;28;20071;-77
2022/10/11 05:04:13;;;;;;;31.27;18.70;;;16.10;68.50;;;;;;5075026;28;20020;-73
2022/10/11 05:06:39;;;;;;;22.50;12.00;;;16.10;68.40;;;;;;5074833;28;20359;-77
2022/10/11 05:09:05;;;;;;;18.80;10.82;;;16.10;68.50;;;;;;5074578;28;20092;-75
2022/10/11 05:11:30;;;;;;;21.55;11.95;;;16.00;68.60;;;;;;5074795;28;20387;-73
2022/10/11 05:13:56;;;;;;;24.05;12.57;;;16.00;69.00;;;;;;5074757;28;20016;-75
2022/10/11 05:16:22;;;;;;;19.42;9.02;;;16.00;69.10;;;;;;5074766;28;20021;-73
2022/10/11 05:18:48;;;;;;;27.27;11.70;;;16.00;69.30;;;;;;5070572;28;20032;-75
2022/10/11 05:21:23;;;;;;;23.80;10.63;;;16.00;69.40;;;;;;5054576;28;20033;-74
2022/10/11 05:23:50;;;;;;;9.75;5.75;;;16.00;69.70;;;;;;5054664;28;20071;-74
2022/10/11 05:26:17;;;;;;;15.65;5.35;;;16.00;69.80;;;;;;5064117;28;20055;-75
2022/10/11 05:28:43;;;;;;;19.48;5.45;;;16.10;70.00;;;;;;5073576;28;20029;-72
2022/10/11 05:31:10;;;;;;;19.33;4.72;;;16.10;70.00;;;;;;5074648;28;20103;-74
2022/10/11 05:33:35;;;;;;;9.80;4.40;;;16.20;70.00;;;;;;5074521;28;20127;-76
2022/10/11 05:36:01;;;;;;;8.95;4.00;;;16.20;70.00;;;;;;5074467;28;20112;-74
2022/10/11 05:38:27;;;;;;;5.22;3.45;;;16.30;70.00;;;;;;5074396;28;20020;-77
2022/10/11 05:40:53;;;;;;;15.82;4.20;;;16.40;70.00;;;;;;5074279;28;20362;-74
2022/10/11 05:43:19;;;;;;;11.80;5.32;;;16.40;69.90;;;;;;5074191;28;20135;-76
2022/10/11 05:45:45;;;;;;;8.30;3.63;;;16.50;69.80;;;;;;5072282;28;20043;-74
2022/10/11 05:48:12;;;;;;;9.10;4.20;;;16.60;69.60;;;;;;5074423;28;20029;-74
2022/10/11 05:50:38;;;;;;;16.35;3.65;;;16.70;69.40;;;;;;5074074;28;20024;-73
2022/10/11 05:53:04;;;;;;;10.27;4.00;;;16.70;69.20;;;;;;5074062;28;20020;-73
2022/10/11 05:55:38;;;;;;;27.95;5.65;;;16.80;69.10;;;;;;5073715;28;20020;-76
2022/10/11 05:58:05;;;;;;;14.05;4.95;;;16.90;69.10;;;;;;5073837;28;20047;-73
2022/10/11 06:00:34;;;;;;;10.85;5.53;;;17.00;69.10;;;;;;5073863;28;20035;-75
2022/10/11 06:03:00;;;;;;;10.98;3.95;;;17.10;69.00;;;;;;5065142;28;20048;-73
2022/10/11 06:05:25;;;;;;;7.95;3.85;;;17.20;68.70;;;;;;5069252;28;20477;-73
2022/10/11 06:07:51;;;;;;;8.32;3.78;;;17.20;68.30;;;;;;5073620;28;20553;-74
2022/10/11 06:10:17;;;;;;;10.00;4.28;;;17.30;68.10;;;;;;5073502;28;20078;-76
2022/10/11 06:12:43;;;;;;;6.68;3.97;;;17.30;67.80;;;;;;5073658;28;20042;-76
2022/10/11 06:15:10;;;;;;;5.75;3.70;;;17.40;67.90;;;;;;5073227;28;20103;-72
2022/10/11 06:17:36;;;;;;;6.50;3.65;;;17.50;67.80;;;;;;5073564;28;20027;-73
2022/10/11 06:20:04;;;;;;;7.22;4.10;;;17.60;67.70;;;;;;5075620;28;20385;-76
2022/10/11 06:22:29;;;;;;;14.73;4.25;;;17.70;67.40;;;;;;5092479;28;20452;-79
2022/10/11 06:24:55;;;;;;;13.38;4.22;;;17.70;67.00;;;;;;5083240;28;20091;-78
2022/10/11 06:27:21;;;;;;;6.97;3.75;;;17.80;66.90;;;;;;5073507;28;20021;-74
2022/10/11 06:29:48;;;;;;;18.55;4.63;;;17.80;66.70;;;;;;5073025;28;20020;-74
2022/10/11 06:32:13;;;;;;;13.80;5.28;;;17.90;66.70;;;;;;5073320;28;20051;-72
2022/10/11 06:34:39;;;;;;;15.55;5.43;;;17.90;66.60;;;;;;5072000;28;20050;-74
2022/10/11 06:37:05;;;;;;;18.73;4.55;;;18.00;66.40;;;;;;5073431;28;20420;-77
2022/10/11 06:39:31;;;;;;;10.85;4.43;;;18.00;66.20;;;;;;5073030;28;20035;-77
2022/10/11 06:41:57;;;;;;;14.55;4.97;;;18.10;66.00;;;;;;5073135;28;20016;-72
2022/10/11 06:44:22;;;;;;;8.35;4.32;;;18.10;65.90;;;;;;5073115;28;20025;-72
2022/10/11 06:46:48;;;;;;;13.65;4.30;;;18.10;65.80;;;;;;5072920;28;20502;-75
2022/10/11 06:49:14;;;;;;;10.18;4.65;;;18.20;65.70;;;;;;5072980;28;20028;-74
2022/10/11 06:51:39;;;;;;;9.68;4.25;;;18.30;65.50;;;;;;5072979;28;20029;-75
2022/10/11 06:54:05;;;;;;;9.13;4.82;;;18.30;65.40;;;;;;5072936;28;20031;-76
2022/10/11 06:56:31;;;;;;;10.98;4.57;;;18.40;65.40;;;;;;5074680;28;20032;-74
2022/10/11 06:58:58;;;;;;;12.43;5.00;;;18.50;65.40;;;;;;5093096;28;20119;-76
2022/10/11 07:01:24;;;;;;;14.55;4.95;;;18.60;65.10;;;;;;5093211;28;20020;-75
2022/10/11 07:03:52;;;;;;;9.63;4.15;;;18.70;65.10;;;;;;5092987;28;20020;-76
2022/10/11 07:06:20;;;;;;;9.10;4.72;;;18.80;64.90;;;;;;5092998;28;20023;-73
2022/10/11 07:08:46;;;;;;;6.40;4.47;;;18.90;64.40;;;;;;5092963;28;20055;-76
2022/10/11 07:11:15;;;;;;;17.20;4.72;;;19.00;64.00;;;;;;5093001;28;20030;-74
2022/10/11 07:13:41;;;;;;;7.20;3.65;;;19.00;63.60;;;;;;5079724;28;20024;-76
2022/10/11 07:16:10;;;;;;;6.75;4.70;;;19.10;63.30;;;;;;5071419;28;20025;-75
2022/10/11 07:18:36;;;;;;;9.73;4.97;;;19.10;63.20;;;;;;5071446;28;20124;-76
2022/10/11 07:21:09;;;;;;;7.13;4.47;;;19.10;63.20;;;;;;5056477;28;20035;-77
2022/10/11 07:23:35;;;;;;;14.30;4.75;;;19.10;62.80;;;;;;5063054;28;20027;-73
2022/10/11 07:26:01;;;;;;;13.23;4.45;;;19.20;62.90;;;;;;5069472;28;20028;-73
2022/10/11 07:28:30;;;;;;;12.48;4.90;;;19.20;62.90;;;;;;5080727;28;20078;-75
2022/10/11 07:30:56;;;;;;;10.70;4.68;;;19.20;62.60;;;;;;5072707;28;20021;-78
2022/10/11 07:33:22;;;;;;;14.60;4.65;;;19.30;62.50;;;;;;5072600;28;20048;-76
2022/10/11 07:35:49;;;;;;;11.13;4.35;;;19.30;62.50;;;;;;5072551;28;20032;-72
2022/10/11 07:38:15;;;;;;;6.05;4.50;;;19.40;62.60;;;;;;5068630;28;20025;-78
2022/10/11 07:40:45;;;;;;;9.30;4.55;;;19.40;62.70;;;;;;5078862;28;20446;-73
2022/10/11 07:43:12;;;;;;;10.68;4.75;;;19.50;62.40;;;;;;5072503;28;20044;-74
2022/10/11 07:45:38;;;;;;;11.93;5.22;;;19.60;62.50;;;;;;5072285;28;20032;-74
2022/10/11 07:48:05;;;;;;;6.20;4.43;;;19.60;63.00;;;;;;5072451;28;20434;-73
2022/10/11 07:50:31;;;;;;;11.32;4.88;;;19.60;62.00;;;;;;5072411;28;20032;-74
2022/10/11 07:52:57;;;;;;;10.48;4.50;;;19.70;61.80;;;;;;5074993;28;20512;-78
2022/10/11 07:55:24;;;;;;;8.23;5.07;;;19.70;61.70;;;;;;5074854;28;20021;-78
2022/10/11 07:57:50;;;;;;;12.88;5.30;;;19.80;61.40;;;;;;5076208;28;20017;-76
2022/10/11 08:00:16;;;;;;;16.25;4.47;;;19.80;60.90;;;;;;5076175;28;20042;-78
2022/10/11 08:02:41;;;;;;;8.07;4.70;;;19.80;60.70;;;;;;5076124;28;20027;-76
2022/10/11 08:05:08;;;;;;;12.07;5.03;;;19.80;60.50;;;;;;5073872;28;20043;-76
2022/10/11 08:07:33;;;;;;;12.65;5.55;;;19.70;60.40;;;;;;5076205;28;20109;-75
2022/10/11 08:09:59;;;;;;;10.65;5.50;;;19.70;60.30;;;;;;5075984;28;20057;-78
2022/10/11 08:12:25;;;;;;;11.63;5.32;;;19.60;60.10;;;;;;5076067;28;20028;-72
2022/10/11 08:14:54;;;;;;;13.98;5.25;;;19.50;60.10;;;;;;5075712;28;20039;-76
2022/10/11 08:17:20;;;;;;;9.70;5.80;;;19.50;60.40;;;;;;5075973;28;20017;-77
2022/10/11 08:19:46;;;;;;;13.88;5.60;;;19.40;60.60;;;;;;5074225;28;20524;-71
2022/10/11 08:22:11;;;;;;;11.18;5.57;;;19.30;60.70;;;;;;5075441;28;20059;-73
2022/10/11 08:24:37;;;;;;;9.88;5.95;;;19.20;60.70;;;;;;5075847;28;20020;-74
2022/10/11 08:27:03;;;;;;;11.23;5.95;;;19.20;60.80;;;;;;5095162;28;20500;-73
2022/10/11 08:29:29;;;;;;;23.45;6.57;;;19.10;61.00;;;;;;5095974;28;20109;-78
2022/10/11 08:31:55;;;;;;;12.48;5.93;;;19.10;61.00;;;;;;5095825;28;20020;-73
2022/10/11 08:34:21;;;;;;;13.15;5.50;;;19.00;61.10;;;;;;5085277;28;20031;-76
2022/10/11 08:36:47;;;;;;;15.30;7.32;;;19.00;61.40;;;;;;5071740;28;20104;-76
2022/10/11 08:39:13;;;;;;;21.73;6.43;;;19.00;61.50;;;;;;5055277;28;20024;-76
2022/10/11 08:41:50;;;;;;;10.68;6.05;;;19.00;61.70;;;;;;5055414;28;20036;-76
2022/10/11 08:44:30;;;;;;;12.35;5.90;;;19.00;61.60;;;;;;5055429;28;20483;-74
2022/10/11 08:47:14;;;;;;;10.80;5.72;;;19.00;61.40;;;;;;5070569;28;20057;-74
2022/10/11 08:49:41;;;;;;;12.95;5.53;;;19.00;61.40;;;;;;5055185;28;20416;-74
2022/10/11 08:52:38;;;;;;;7.90;4.90;;;19.00;61.60;;;;;;5055237;28;20017;-73
2022/10/11 08:55:10;;;;;;;9.48;4.82;;;19.00;61.80;;;;;;5068918;28;20028;-73
2022/10/11 08:57:39;;;;;;;11.27;5.72;;;19.10;61.90;;;;;;5071843;28;20024;-74
2022/10/11 09:00:17;;;;;;;19.02;5.22;;;19.20;61.90;;;;;;5075054;28;20028;-77
2022/10/11 09:03:05;;;;;;;13.00;4.72;;;19.20;61.50;;;;;;5073389;28;20074;-76
2022/10/11 09:05:35;;;;;;;21.63;6.38;;;19.20;61.50;;;;;;5074524;28;20056;-76
2022/10/11 09:08:11;;;;;;;17.77;6.20;;;19.20;61.30;;;;;;5074920;28;20017;-74
2022/10/11 09:11:04;;;;;;;12.85;5.60;;;19.20;61.40;;;;;;5074954;28;20505;-72
2022/10/11 09:14:02;;;;;;;13.30;6.97;;;19.30;61.70;;;;;;5064333;28;20080;-76
2022/10/11 09:16:30;;;;;;;11.38;5.57;;;19.30;61.50;;;;;;5081113;28;20025;-73
2022/10/11 09:19:31;;;;;;;7.50;5.20;;;19.30;61.50;;;;;;5074989;28;20070;-75
2022/10/11 09:22:18;;;;;;;15.20;5.05;;;19.30;61.60;;;;;;5052732;28;20452;-75
2022/10/11 09:24:58;;;;;;;12.18;5.30;;;19.40;61.70;;;;;;5092124;28;20028;-76
2022/10/11 09:27:35;;;;;;;15.48;5.72;;;19.50;61.80;;;;;;5081608;28;20056;-72
2022/10/11 09:30:16;;;;;;;16.42;5.70;;;19.60;61.90;;;;;;5057375;28;20025;-74
2022/10/11 09:32:46;;;;;;;9.80;5.00;;;19.70;61.90;;;;;;5056142;28;20075;-70
2022/10/11 09:35:18;;;;;;;9.43;4.72;;;19.90;62.00;;;;;;5055359;28;20025;-71
2022/10/11 09:37:52;;;;;;;11.30;5.18;;;20.00;61.90;;;;;;5084503;28;20085;-74
2022/10/11 09:40:21;;;;;;;8.18;4.88;;;20.20;61.70;;;;;;5088400;28;20060;-73
2022/10/11 09:42:47;;;;;;;15.82;5.82;;;20.30;61.30;;;;;;5077900;28;20381;-73
2022/10/11 09:45:21;;;;;;;11.80;4.85;;;20.40;60.70;;;;;;5075294;28;20133;-72
2022/10/11 09:47:48;;;;;;;;;;;20.60;60.50;;;;;;5074654;28;20021;-77
2022/10/11 09:50:25;;;;;;;5.22;3.75;;;20.70;61.20;;;;;;5072914;28;20017;-75
2022/10/11 09:52:57;;;;;;;9.23;4.75;;;20.80;60.30;;;;;;5074300;28;20486;-76
2022/10/11 09:55:38;;;;;;;8.50;4.57;;;20.90;60.30;;;;;;5075966;28;20024;-72
2022/10/11 09:58:20;;;;;;;6.90;4.60;;;21.10;60.50;;;;;;5077355;28;20089;-77
2022/10/11 10:00:57;;;;;;;9.40;4.60;;;21.20;60.00;;;;;;5077447;28;20035;-74
2022/10/11 10:03:28;;;;;;;6.18;4.15;;;21.40;59.80;;;;;;5094086;28;20024;-71
2022/10/11 10:06:13;;;;;;;9.25;4.25;;;21.60;59.70;;;;;;5075544;28;20090;-76
2022/10/11 10:08:39;;;;;;;6.35;3.88;;;21.80;59.30;;;;;;5073937;28;20074;-75
2022/10/11 10:11:06;;;;;;;7.85;4.15;;;22.00;59.10;;;;;;5073957;28;20032;-75
2022/10/11 10:13:51;;;;;;;4.50;3.13;;;22.10;57.80;;;;;;5073952;28;20500;-74
2022/10/11 10:16:26;;;;;;;10.77;4.13;;;22.30;57.70;;;;;;5073531;28;20031;-72
2022/10/11 10:18:59;;;;;;;4.00;3.28;;;22.30;57.20;;;;;;5082631;28;20021;-75
2022/10/11 10:21:32;;;;;;;5.70;3.45;;;22.40;57.20;;;;;;5053790;28;20067;-77
2022/10/11 10:24:02;;;;;;;7.90;4.40;;;22.50;56.80;;;;;;5053783;28;20021;-72
2022/10/11 10:26:28;;;;;;;5.80;3.08;;;22.60;56.60;;;;;;5065277;28;20075;-77
2022/10/11 10:29:00;;;;;;;5.03;3.40;;;22.70;56.70;;;;;;5073651;28;20021;-72
2022/10/11 10:31:36;;;;;;;6.97;3.70;;;22.80;56.20;;;;;;5089056;28;20024;-74
2022/10/11 10:34:11;;;;;;;5.55;3.35;;;22.90;55.80;;;;;;5073358;28;20363;-73
2022/10/11 10:36:42;;;;;;;5.70;3.25;;;23.00;55.70;;;;;;5073509;28;20103;-75
2022/10/11 10:39:40;;;;;;;5.57;3.70;;;23.20;55.40;;;;;;5073543;28;20463;-72
2022/10/11 10:42:13;;;;;;;10.55;3.92;;;23.30;55.30;;;;;;5050086;28;20051;-73
2022/10/11 10:44:39;;;;;;;7.73;3.37;;;23.40;54.40;;;;;;5073177;28;20028;-73
2022/10/11 10:47:19;;;;;;;10.45;3.20;;;23.40;54.00;;;;;;5073323;28;20482;-76
2022/10/11 10:50:10;;;;;;;9.20;3.58;;;23.40;53.80;;;;;;5071804;28;20030;-72
2022/10/11 10:52:53;;;;;;;6.15;3.25;;;23.40;53.80;;;;;;5073195;28;20025;-74
2022/10/11 10:55:51;;;;;;;6.82;3.40;;;23.40;53.90;;;;;;5073171;28;20428;-74
2022/10/11 10:58:26;;;;;;;7.70;3.88;;;23.40;54.00;;;;;;5073182;28;20052;-75
2022/10/11 11:00:57;;;;;;;8.50;3.97;;;23.40;53.80;;;;;;5073048;28;20130;-71
2022/10/11 11:03:47;;;;;;;11.90;3.30;;;23.40;54.00;;;;;;5072829;28;20025;-76
2022/10/11 11:06:30;;;;;;;6.70;3.80;;;23.40;54.30;;;;;;5073091;28;20009;-78
2022/10/11 11:09:23;;;;;;;9.97;3.43;;;23.50;53.80;;;;;;5073003;28;20020;-79
2022/10/11 11:12:07;;;;;;;7.72;4.30;;;23.60;53.80;;;;;;5072884;28;20320;-73
2022/10/11 11:14:58;;;;;;;7.35;3.85;;;23.70;53.50;;;;;;5072867;28;20017;-75
2022/10/11 11:17:31;;;;;;;5.28;3.63;;;23.90;53.60;;;;;;5082146;28;20010;-74
2022/10/11 11:20:16;;;;;;;6.60;4.18;;;24.10;53.60;;;;;;5061417;28;20024;-75
2022/10/11 11:23:08;;;;;;;7.10;3.53;;;24.20;52.90;;;;;;5083818;28;20036;-76
2022/10/11 11:25:44;;;;;;;6.57;3.40;;;24.30;52.70;;;;;;5068429;28;20547;-76
2022/10/11 11:28:40;;;;;;;5.97;3.97;;;24.50;52.20;;;;;;5071979;28;20021;-75
2022/10/11 11:31:29;;;;;;;11.02;4.72;;;24.50;52.10;;;;;;5072708;28;20490;-75
2022/10/11 11:34:18;;;;;;;7.30;4.70;;;24.60;51.40;;;;;;5072770;28;20074;-79
2022/10/11 11:36:55;;;;;;;9.27;4.07;;;24.60;51.00;;;;;;5072668;28;20498;-75
2022/10/11 11:39:30;;;;;;;6.30;3.30;;;24.50;51.20;;;;;;5072457;28;20108;-74
2022/10/11 11:42:03;;;;;;;11.85;3.55;;;24.50;51.00;;;;;;5072886;28;20028;-76
2022/10/11 11:44:31;;;;;;;12.65;3.70;;;24.50;51.20;;;;;;5072459;28;20103;-76
2022/10/11 11:47:28;;;;;;;8.80;4.22;;;24.40;51.30;;;;;;5071009;28;20052;-76
2022/10/11 11:50:21;;;;;;;6.72;3.72;;;24.30;51.20;;;;;;5072291;28;20157;-78
2022/10/11 11:52:58;;;;;;;7.18;3.30;;;24.30;51.60;;;;;;5070494;28;20501;-79
2022/10/11 11:55:57;;;;;;;7.20;3.67;;;24.20;51.30;;;;;;5072408;28;20028;-73
2022/10/11 11:58:40;;;;;;;5.70;3.47;;;24.20;51.40;;;;;;5063998;28;20402;-77
2022/10/11 12:01:06;;;;;;;5.25;3.72;;;24.20;51.70;;;;;;5072329;28;20025;-73
2022/10/11 12:03:44;;;;;;;6.22;3.88;;;24.20;51.70;;;;;;5072272;28;20538;-75
2022/10/11 12:06:15;;;;;;;6.65;3.95;;;24.20;51.60;;;;;;5072232;28;20095;-76
2022/10/11 12:08:44;;;;;;;7.68;4.03;;;24.30;51.50;;;;;;5070880;28;20465;-75
2022/10/11 12:11:28;;;;;;;6.10;3.78;;;24.30;51.60;;;;;;5072304;28;20493;-77
2022/10/11 12:13:54;;;;;;;6.15;3.72;;;24.30;51.60;;;;;;5072409;28;20017;-75
2022/10/11 12:16:21;;;;;;;5.70;3.50;;;24.40;51.40;;;;;;5072130;28;20493;-74
2022/10/11 12:18:56;;;;;;;9.75;4.65;;;24.50;51.30;;;;;;5072157;28;20033;-79
2022/10/11 12:21:38;;;;;;;7.30;4.00;;;24.50;51.00;;;;;;5071994;28;20021;-73
2022/10/11 12:24:19;;;;;;;9.95;3.70;;;24.70;50.90;;;;;;5087636;28;20017;-78
2022/10/11 12:26:53;;;;;;;7.57;3.53;;;24.80;50.70;;;;;;5072130;28;20096;-78
2022/10/11 12:29:44;;;;;;;8.50;3.67;;;24.90;50.70;;;;;;5071980;28;20033;-77
2022/10/11 12:32:32;;;;;;;5.70;3.33;;;25.00;49.80;;;;;;5071302;28;20037;-74
2022/10/11 12:35:29;;;;;;;8.73;3.75;;;25.20;50.00;;;;;;5087483;28;20024;-74
2022/10/11 12:38:11;;;;;;;5.95;3.60;;;25.30;49.90;;;;;;5072577;28;20103;-76
2022/10/11 12:40:40;;;;;;;5.25;3.47;;;25.40;49.30;;;;;;5075507;28;20485;-74
2022/10/11 12:43:50;;;;;;;6.78;3.10;;;25.50;49.30;;;;;;5075377;28;20029;-76
2022/10/11 12:46:28;;;;;;;6.28;4.00;;;25.50;49.20;;;;;;5046683;28;20044;-75
2022/10/11 12:49:20;;;;;;;6.47;3.80;;;25.60;48.80;;;;;;5075288;28;20470;-75
2022/10/11 12:51:52;;;;;;;7.38;3.90;;;25.50;48.10;;;;;;5055234;28;20120;-75
2022/10/11 12:54:35;;;;;;;6.95;3.95;;;25.50;48.20;;;;;;5055165;28;20031;-76
2022/10/11 12:57:07;;;;;;;6.55;3.30;;;25.30;48.50;;;;;;5055092;28;20021;-80
2022/10/11 12:59:34;;;;;;;6.35;3.95;;;25.20;48.50;;;;;;5055173;28;20029;-77
2022/10/11 13:02:00;;;;;;;10.02;4.28;;;25.00;48.60;;;;;;5070518;28;20028;-75
2022/10/11 13:04:31;;;;;;;7.20;4.60;;;24.90;48.80;;;;;;5055040;28;20025;-74